sensor_id;sensor_type;location;lat;lon;timestamp;P1;durP1;ratioP1;P2;durP2;ratioP2
59468;SDS011;45277;52.768;18.262;2024-01-15T00:00:05;14.95;;;9.02;;
59468;SDS011;45277;52.768;18.262;2024-01-15T00:01:41;6.75;;;5.03;;
59468;SDS011;45277;52.768;18.262;2024-01-15T00:03:16;8.35;;;6.07;;
59468;SDS011;45277;52.768;18.262;2024-01-15T00:04:48;10.70;;;7.90;;
59468;SDS011;45277;52.768;18.262;2024-01-15T00:06:19;12.20;;;6.70;;
59468;SDS011;45277;52.768;18.262;2024-01-15T00:07:51;10.25;;;7.72;;
59468;SDS011;45277;52.768;18.262;2024-01-15T00:09:23;11.02;;;7.40;;
59468;SDS011;45277;52.768;18.262;2024-01-15T00:10:54;11.88;;;7.10;;
59468;SDS011;45277;52.768;18.262;2024-01-15T00:12:26;12.85;;;8.43;;
59468;SDS011;45277;52.768;18.262;2024-01-15T00:13:57;14.23;;;9.20;;
59468;SDS011;45277;52.768;18.262;2024-01-15T00:15:29;16.75;;;9.93;;
59468;SDS011;45277;52.768;18.262;2024-01-15T00:17:01;11.65;;;7.63;;
59468;SDS011;45277;52.768;18.262;2024-01-15T00:18:33;12.40;;;8.02;;
59468;SDS011;45277;52.768;18.262;2024-01-15T00:20:05;14.35;;;9.43;;
59468;SDS011;45277;52.768;18.262;2024-01-15T00:21:37;10.63;;;7.75;;
59468;SDS011;45277;52.768;18.262;2024-01-15T00:23:09;17.27;;;9.57;;
59468;SDS011;45277;52.768;18.262;2024-01-15T00:24:40;20.88;;;14.07;;
59468;SDS011;45277;52.768;18.262;2024-01-15T00:26:12;14.35;;;9.60;;
59468;SDS011;45277;52.768;18.262;2024-01-15T00:27:44;8.65;;;7.38;;
59468;SDS011;45277;52.768;18.262;2024-01-15T00:29:15;12.57;;;8.05;;
59468;SDS011;45277;52.768;18.262;2024-01-15T00:30:47;11.57;;;7.68;;
59468;SDS011;45277;52.768;18.262;2024-01-15T00:32:19;15.65;;;9.70;;
59468;SDS011;45277;52.768;18.262;2024-01-15T00:33:51;17.88;;;11.02;;
59468;SDS011;45277;52.768;18.262;2024-01-15T00:35:23;10.50;;;7.28;;
59468;SDS011;45277;52.768;18.262;2024-01-15T00:36:54;16.80;;;10.60;;
59468;SDS011;45277;52.768;18.262;2024-01-15T00:38:26;7.10;;;5.97;;
59468;SDS011;45277;52.768;18.262;2024-01-15T00:39:58;18.77;;;11.52;;
59468;SDS011;45277;52.768;18.262;2024-01-15T00:41:32;17.10;;;12.50;;
59468;SDS011;45277;52.768;18.262;2024-01-15T00:43:04;11.30;;;8.70;;
59468;SDS011;45277;52.768;18.262;2024-01-15T00:44:38;12.90;;;8.35;;
59468;SDS011;45277;52.768;18.262;2024-01-15T00:46:10;12.88;;;8.35;;
59468;SDS011;45277;52.768;18.262;2024-01-15T00:47:41;13.90;;;6.90;;
59468;SDS011;45277;52.768;18.262;2024-01-15T00:49:13;21.58;;;10.95;;
59468;SDS011;45277;52.768;18.262;2024-01-15T00:50:45;13.40;;;9.48;;
59468;SDS011;45277;52.768;18.262;2024-01-15T00:52:16;14.32;;;8.18;;
59468;SDS011;45277;52.768;18.262;2024-01-15T00:53:48;17.10;;;10.07;;
59468;SDS011;45277;52.768;18.262;2024-01-15T00:55:20;19.63;;;12.27;;
59468;SDS011;45277;52.768;18.262;2024-01-15T00:56:51;19.35;;;10.73;;
59468;SDS011;45277;52.768;18.262;2024-01-15T00:58:23;9.20;;;6.78;;
59468;SDS011;45277;52.768;18.262;2024-01-15T00:59:54;17.25;;;10.02;;
59468;SDS011;45277;52.768;18.262;2024-01-15T01:01:28;10.23;;;7.18;;
59468;SDS011;45277;52.768;18.262;2024-01-15T01:03:00;19.50;;;11.40;;
59468;SDS011;45277;52.768;18.262;2024-01-15T01:04:32;19.30;;;11.85;;
59468;SDS011;45277;52.768;18.262;2024-01-15T01:06:03;12.10;;;7.63;;
59468;SDS011;45277;52.768;18.262;2024-01-15T01:07:35;19.95;;;11.98;;
59468;SDS011;45277;52.768;18.262;2024-01-15T01:09:06;15.15;;;8.43;;
59468;SDS011;45277;52.768;18.262;2024-01-15T01:10:38;11.00;;;8.13;;
59468;SDS011;45277;52.768;18.262;2024-01-15T01:12:10;14.93;;;10.10;;
59468;SDS011;45277;52.768;18.262;2024-01-15T01:13:42;12.35;;;7.47;;
59468;SDS011;45277;52.768;18.262;2024-01-15T01:15:14;18.42;;;11.80;;
59468;SDS011;45277;52.768;18.262;2024-01-15T01:16:46;9.52;;;6.57;;
59468;SDS011;45277;52.768;18.262;2024-01-15T01:18:17;21.48;;;12.88;;
59468;SDS011;45277;52.768;18.262;2024-01-15T01:19:49;10.80;;;7.80;;
59468;SDS011;45277;52.768;18.262;2024-01-15T01:21:21;17.20;;;10.40;;
59468;SDS011;45277;52.768;18.262;2024-01-15T01:22:52;12.65;;;7.55;;
59468;SDS011;45277;52.768;18.262;2024-01-15T01:24:24;10.32;;;7.35;;
59468;SDS011;45277;52.768;18.262;2024-01-15T01:25:56;13.02;;;8.82;;
59468;SDS011;45277;52.768;18.262;2024-01-15T01:27:27;11.50;;;7.40;;
59468;SDS011;45277;52.768;18.262;2024-01-15T01:28:59;18.15;;;11.13;;
59468;SDS011;45277;52.768;18.262;2024-01-15T01:30:31;14.55;;;8.75;;
59468;SDS011;45277;52.768;18.262;2024-01-15T01:32:02;17.38;;;11.40;;
59468;SDS011;45277;52.768;18.262;2024-01-15T01:33:34;10.77;;;7.68;;
59468;SDS011;45277;52.768;18.262;2024-01-15T01:35:06;8.32;;;6.78;;
59468;SDS011;45277;52.768;18.262;2024-01-15T01:36:37;12.20;;;8.18;;
59468;SDS011;45277;52.768;18.262;2024-01-15T01:38:09;12.05;;;7.82;;
59468;SDS011;45277;52.768;18.262;2024-01-15T01:39:41;13.50;;;9.27;;
59468;SDS011;45277;52.768;18.262;2024-01-15T01:41:13;16.50;;;10.65;;
59468;SDS011;45277;52.768;18.262;2024-01-15T01:42:45;15.63;;;7.95;;
59468;SDS011;45277;52.768;18.262;2024-01-15T01:44:19;12.02;;;7.25;;
59468;SDS011;45277;52.768;18.262;2024-01-15T01:45:50;14.02;;;9.60;;
59468;SDS011;45277;52.768;18.262;2024-01-15T01:47:21;11.90;;;8.68;;
59468;SDS011;45277;52.768;18.262;2024-01-15T01:48:54;19.67;;;12.40;;
59468;SDS011;45277;52.768;18.262;2024-01-15T01:50:27;11.55;;;6.90;;
59468;SDS011;45277;52.768;18.262;2024-01-15T01:52:02;12.80;;;8.10;;
59468;SDS011;45277;52.768;18.262;2024-01-15T01:53:35;11.25;;;7.90;;
59468;SDS011;45277;52.768;18.262;2024-01-15T01:55:08;11.40;;;7.53;;
59468;SDS011;45277;52.768;18.262;2024-01-15T01:56:41;16.33;;;9.90;;
59468;SDS011;45277;52.768;18.262;2024-01-15T01:58:13;17.25;;;10.35;;
59468;SDS011;45277;52.768;18.262;2024-01-15T01:59:45;10.38;;;7.60;;
59468;SDS011;45277;52.768;18.262;2024-01-15T02:01:17;12.40;;;8.10;;
59468;SDS011;45277;52.768;18.262;2024-01-15T02:02:50;15.88;;;10.73;;
59468;SDS011;45277;52.768;18.262;2024-01-15T02:04:22;14.35;;;8.18;;
59468;SDS011;45277;52.768;18.262;2024-01-15T02:05:54;11.43;;;7.45;;
59468;SDS011;45277;52.768;18.262;2024-01-15T02:07:26;12.68;;;8.05;;
59468;SDS011;45277;52.768;18.262;2024-01-15T02:08:58;12.57;;;8.52;;
59468;SDS011;45277;52.768;18.262;2024-01-15T02:10:30;15.07;;;8.25;;
59468;SDS011;45277;52.768;18.262;2024-01-15T02:12:01;14.18;;;8.60;;
59468;SDS011;45277;52.768;18.262;2024-01-15T02:13:32;8.50;;;6.38;;
59468;SDS011;45277;52.768;18.262;2024-01-15T02:15:04;13.85;;;9.30;;
59468;SDS011;45277;52.768;18.262;2024-01-15T02:16:35;19.30;;;9.55;;
59468;SDS011;45277;52.768;18.262;2024-01-15T02:18:07;9.77;;;5.30;;
59468;SDS011;45277;52.768;18.262;2024-01-15T02:19:38;9.52;;;6.68;;
59468;SDS011;45277;52.768;18.262;2024-01-15T02:21:11;14.52;;;9.05;;
59468;SDS011;45277;52.768;18.262;2024-01-15T02:22:43;16.15;;;10.02;;
59468;SDS011;45277;52.768;18.262;2024-01-15T02:24:14;10.68;;;6.22;;
59468;SDS011;45277;52.768;18.262;2024-01-15T02:25:46;12.35;;;8.27;;
59468;SDS011;45277;52.768;18.262;2024-01-15T02:27:17;10.75;;;7.82;;
59468;SDS011;45277;52.768;18.262;2024-01-15T02:28:50;8.95;;;6.22;;
59468;SDS011;45277;52.768;18.262;2024-01-15T02:30:22;12.13;;;8.30;;
59468;SDS011;45277;52.768;18.262;2024-01-15T02:31:55;8.55;;;4.97;;
59468;SDS011;45277;52.768;18.262;2024-01-15T02:33:27;11.70;;;8.48;;
59468;SDS011;45277;52.768;18.262;2024-01-15T02:34:58;17.25;;;9.40;;
59468;SDS011;45277;52.768;18.262;2024-01-15T02:36:30;7.88;;;5.53;;
59468;SDS011;45277;52.768;18.262;2024-01-15T02:38:01;13.55;;;8.23;;
59468;SDS011;45277;52.768;18.262;2024-01-15T02:39:33;11.13;;;7.07;;
59468;SDS011;45277;52.768;18.262;2024-01-15T02:41:04;11.05;;;7.05;;
59468;SDS011;45277;52.768;18.262;2024-01-15T02:42:35;11.90;;;7.75;;
59468;SDS011;45277;52.768;18.262;2024-01-15T02:44:07;17.58;;;9.90;;
59468;SDS011;45277;52.768;18.262;2024-01-15T02:45:38;14.50;;;8.45;;
59468;SDS011;45277;52.768;18.262;2024-01-15T02:47:10;15.40;;;8.63;;
59468;SDS011;45277;52.768;18.262;2024-01-15T02:48:41;16.60;;;10.40;;
59468;SDS011;45277;52.768;18.262;2024-01-15T02:50:12;14.60;;;9.52;;
59468;SDS011;45277;52.768;18.262;2024-01-15T02:51:44;10.60;;;7.00;;
59468;SDS011;45277;52.768;18.262;2024-01-15T02:53:16;12.55;;;7.53;;
59468;SDS011;45277;52.768;18.262;2024-01-15T02:54:47;9.45;;;6.85;;
59468;SDS011;45277;52.768;18.262;2024-01-15T02:56:18;13.10;;;8.82;;
59468;SDS011;45277;52.768;18.262;2024-01-15T02:57:50;18.00;;;10.45;;
59468;SDS011;45277;52.768;18.262;2024-01-15T02:59:21;12.32;;;6.70;;
59468;SDS011;45277;52.768;18.262;2024-01-15T03:00:52;8.32;;;5.00;;
59468;SDS011;45277;52.768;18.262;2024-01-15T03:02:24;7.57;;;6.45;;
59468;SDS011;45277;52.768;18.262;2024-01-15T03:03:55;7.63;;;5.38;;
59468;SDS011;45277;52.768;18.262;2024-01-15T03:05:27;8.20;;;5.90;;
59468;SDS011;45277;52.768;18.262;2024-01-15T03:06:59;8.93;;;5.45;;
59468;SDS011;45277;52.768;18.262;2024-01-15T03:08:30;8.13;;;6.25;;
59468;SDS011;45277;52.768;18.262;2024-01-15T03:10:01;12.20;;;7.32;;
59468;SDS011;45277;52.768;18.262;2024-01-15T03:11:39;11.57;;;8.02;;
59468;SDS011;45277;52.768;18.262;2024-01-15T03:13:10;15.55;;;6.75;;
59468;SDS011;45277;52.768;18.262;2024-01-15T03:14:41;7.80;;;5.47;;
59468;SDS011;45277;52.768;18.262;2024-01-15T03:16:13;9.70;;;5.88;;
59468;SDS011;45277;52.768;18.262;2024-01-15T03:17:44;8.65;;;5.90;;
59468;SDS011;45277;52.768;18.262;2024-01-15T03:19:15;11.77;;;8.20;;
59468;SDS011;45277;52.768;18.262;2024-01-15T03:20:47;8.57;;;6.45;;
59468;SDS011;45277;52.768;18.262;2024-01-15T03:22:18;10.07;;;6.72;;
59468;SDS011;45277;52.768;18.262;2024-01-15T03:23:49;6.28;;;4.72;;
59468;SDS011;45277;52.768;18.262;2024-01-15T03:25:21;11.52;;;8.35;;
59468;SDS011;45277;52.768;18.262;2024-01-15T03:26:52;8.25;;;5.55;;
59468;SDS011;45277;52.768;18.262;2024-01-15T03:28:23;6.40;;;4.82;;
59468;SDS011;45277;52.768;18.262;2024-01-15T03:29:55;9.10;;;7.07;;
59468;SDS011;45277;52.768;18.262;2024-01-15T03:31:26;7.70;;;5.30;;
59468;SDS011;45277;52.768;18.262;2024-01-15T03:32:58;11.98;;;7.18;;
59468;SDS011;45277;52.768;18.262;2024-01-15T03:34:29;11.48;;;6.85;;
59468;SDS011;45277;52.768;18.262;2024-01-15T03:36:00;8.55;;;6.30;;
59468;SDS011;45277;52.768;18.262;2024-01-15T03:37:32;12.80;;;8.38;;
59468;SDS011;45277;52.768;18.262;2024-01-15T03:39:03;8.65;;;6.55;;
59468;SDS011;45277;52.768;18.262;2024-01-15T03:40:34;9.48;;;6.45;;
59468;SDS011;45277;52.768;18.262;2024-01-15T03:42:06;10.10;;;6.85;;
59468;SDS011;45277;52.768;18.262;2024-01-15T03:43:37;10.45;;;7.28;;
59468;SDS011;45277;52.768;18.262;2024-01-15T03:45:09;11.90;;;8.00;;
59468;SDS011;45277;52.768;18.262;2024-01-15T03:46:41;7.70;;;6.13;;
59468;SDS011;45277;52.768;18.262;2024-01-15T03:48:12;8.27;;;5.63;;
59468;SDS011;45277;52.768;18.262;2024-01-15T03:49:43;9.45;;;5.95;;
59468;SDS011;45277;52.768;18.262;2024-01-15T03:51:16;10.32;;;6.25;;
59468;SDS011;45277;52.768;18.262;2024-01-15T03:52:48;11.55;;;7.60;;
59468;SDS011;45277;52.768;18.262;2024-01-15T03:54:19;10.82;;;7.20;;
59468;SDS011;45277;52.768;18.262;2024-01-15T03:55:50;10.05;;;5.75;;
59468;SDS011;45277;52.768;18.262;2024-01-15T03:57:23;9.10;;;6.45;;
59468;SDS011;45277;52.768;18.262;2024-01-15T03:58:54;16.83;;;9.52;;
59468;SDS011;45277;52.768;18.262;2024-01-15T04:00:25;10.43;;;6.25;;
59468;SDS011;45277;52.768;18.262;2024-01-15T04:01:56;11.45;;;8.05;;
59468;SDS011;45277;52.768;18.262;2024-01-15T04:03:28;7.90;;;6.18;;
59468;SDS011;45277;52.768;18.262;2024-01-15T04:04:59;14.02;;;7.30;;
59468;SDS011;45277;52.768;18.262;2024-01-15T04:06:30;10.65;;;6.45;;
59468;SDS011;45277;52.768;18.262;2024-01-15T04:08:02;14.55;;;10.20;;
59468;SDS011;45277;52.768;18.262;2024-01-15T04:09:33;10.75;;;6.20;;
59468;SDS011;45277;52.768;18.262;2024-01-15T04:11:05;17.52;;;9.45;;
59468;SDS011;45277;52.768;18.262;2024-01-15T04:12:36;16.08;;;9.70;;
59468;SDS011;45277;52.768;18.262;2024-01-15T04:14:08;10.20;;;7.45;;
59468;SDS011;45277;52.768;18.262;2024-01-15T04:15:39;8.57;;;5.88;;
59468;SDS011;45277;52.768;18.262;2024-01-15T04:17:11;10.48;;;7.35;;
59468;SDS011;45277;52.768;18.262;2024-01-15T04:18:42;14.00;;;9.25;;
59468;SDS011;45277;52.768;18.262;2024-01-15T04:20:14;13.70;;;9.73;;
59468;SDS011;45277;52.768;18.262;2024-01-15T04:21:45;12.48;;;8.48;;
59468;SDS011;45277;52.768;18.262;2024-01-15T04:23:16;13.02;;;7.68;;
59468;SDS011;45277;52.768;18.262;2024-01-15T04:24:48;16.33;;;9.43;;
59468;SDS011;45277;52.768;18.262;2024-01-15T04:26:19;12.77;;;7.88;;
59468;SDS011;45277;52.768;18.262;2024-01-15T04:27:50;16.45;;;10.18;;
59468;SDS011;45277;52.768;18.262;2024-01-15T04:29:22;15.13;;;8.75;;
59468;SDS011;45277;52.768;18.262;2024-01-15T04:30:53;12.90;;;8.32;;
59468;SDS011;45277;52.768;18.262;2024-01-15T04:32:24;11.93;;;6.82;;
59468;SDS011;45277;52.768;18.262;2024-01-15T04:33:55;11.32;;;7.05;;
59468;SDS011;45277;52.768;18.262;2024-01-15T04:35:27;21.40;;;9.23;;
59468;SDS011;45277;52.768;18.262;2024-01-15T04:36:58;17.77;;;8.88;;
59468;SDS011;45277;52.768;18.262;2024-01-15T04:38:30;15.63;;;8.75;;
59468;SDS011;45277;52.768;18.262;2024-01-15T04:40:01;11.95;;;8.63;;
59468;SDS011;45277;52.768;18.262;2024-01-15T04:41:34;11.18;;;6.50;;
59468;SDS011;45277;52.768;18.262;2024-01-15T04:43:06;12.40;;;7.90;;
59468;SDS011;45277;52.768;18.262;2024-01-15T04:44:37;13.80;;;7.72;;
59468;SDS011;45277;52.768;18.262;2024-01-15T04:46:08;10.50;;;6.45;;
59468;SDS011;45277;52.768;18.262;2024-01-15T04:47:40;18.63;;;9.98;;
59468;SDS011;45277;52.768;18.262;2024-01-15T04:49:12;16.27;;;8.10;;
59468;SDS011;45277;52.768;18.262;2024-01-15T04:50:43;11.45;;;7.15;;
59468;SDS011;45277;52.768;18.262;2024-01-15T04:52:15;9.88;;;6.40;;
59468;SDS011;45277;52.768;18.262;2024-01-15T04:53:46;14.70;;;9.38;;
59468;SDS011;45277;52.768;18.262;2024-01-15T04:55:17;14.38;;;9.30;;
59468;SDS011;45277;52.768;18.262;2024-01-15T04:56:49;21.65;;;10.20;;
59468;SDS011;45277;52.768;18.262;2024-01-15T04:58:20;18.80;;;9.35;;
59468;SDS011;45277;52.768;18.262;2024-01-15T04:59:55;13.48;;;8.43;;
59468;SDS011;45277;52.768;18.262;2024-01-15T05:01:30;14.95;;;9.38;;
59468;SDS011;45277;52.768;18.262;2024-01-15T05:03:04;15.10;;;8.45;;
59468;SDS011;45277;52.768;18.262;2024-01-15T05:04:36;14.75;;;7.70;;
59468;SDS011;45277;52.768;18.262;2024-01-15T05:06:07;11.75;;;8.35;;
59468;SDS011;45277;52.768;18.262;2024-01-15T05:07:39;15.80;;;8.57;;
59468;SDS011;45277;52.768;18.262;2024-01-15T05:09:10;18.65;;;9.77;;
59468;SDS011;45277;52.768;18.262;2024-01-15T05:10:41;16.65;;;9.15;;
59468;SDS011;45277;52.768;18.262;2024-01-15T05:12:13;13.05;;;7.43;;
59468;SDS011;45277;52.768;18.262;2024-01-15T05:13:44;12.70;;;8.73;;
59468;SDS011;45277;52.768;18.262;2024-01-15T05:15:15;16.75;;;8.88;;
59468;SDS011;45277;52.768;18.262;2024-01-15T05:16:47;13.48;;;8.52;;
59468;SDS011;45277;52.768;18.262;2024-01-15T05:18:19;10.43;;;7.30;;
59468;SDS011;45277;52.768;18.262;2024-01-15T05:19:51;7.00;;;4.95;;
59468;SDS011;45277;52.768;18.262;2024-01-15T05:21:22;9.70;;;6.95;;
59468;SDS011;45277;52.768;18.262;2024-01-15T05:22:53;9.80;;;7.47;;
59468;SDS011;45277;52.768;18.262;2024-01-15T05:24:25;9.82;;;5.80;;
59468;SDS011;45277;52.768;18.262;2024-01-15T05:25:57;10.48;;;5.93;;
59468;SDS011;45277;52.768;18.262;2024-01-15T05:27:28;8.20;;;5.53;;
59468;SDS011;45277;52.768;18.262;2024-01-15T05:28:59;9.57;;;6.53;;
59468;SDS011;45277;52.768;18.262;2024-01-15T05:30:31;11.07;;;5.75;;
59468;SDS011;45277;52.768;18.262;2024-01-15T05:32:02;8.23;;;5.72;;
59468;SDS011;45277;52.768;18.262;2024-01-15T05:33:34;7.38;;;5.68;;
59468;SDS011;45277;52.768;18.262;2024-01-15T05:35:06;4.15;;;3.20;;
59468;SDS011;45277;52.768;18.262;2024-01-15T05:36:37;9.63;;;5.05;;
59468;SDS011;45277;52.768;18.262;2024-01-15T05:38:09;10.05;;;6.15;;
59468;SDS011;45277;52.768;18.262;2024-01-15T05:39:40;7.60;;;5.18;;
59468;SDS011;45277;52.768;18.262;2024-01-15T05:41:12;13.68;;;7.40;;
59468;SDS011;45277;52.768;18.262;2024-01-15T05:42:44;17.05;;;8.15;;
59468;SDS011;45277;52.768;18.262;2024-01-15T05:44:15;12.68;;;7.15;;
59468;SDS011;45277;52.768;18.262;2024-01-15T05:45:46;10.07;;;6.63;;
59468;SDS011;45277;52.768;18.262;2024-01-15T05:47:18;14.57;;;5.82;;
59468;SDS011;45277;52.768;18.262;2024-01-15T05:48:49;9.35;;;5.68;;
59468;SDS011;45277;52.768;18.262;2024-01-15T05:50:20;7.07;;;4.78;;
59468;SDS011;45277;52.768;18.262;2024-01-15T05:51:53;7.57;;;5.65;;
59468;SDS011;45277;52.768;18.262;2024-01-15T05:53:24;7.80;;;5.20;;
59468;SDS011;45277;52.768;18.262;2024-01-15T05:54:55;5.93;;;4.97;;
59468;SDS011;45277;52.768;18.262;2024-01-15T05:56:27;8.07;;;5.35;;
59468;SDS011;45277;52.768;18.262;2024-01-15T05:57:58;3.20;;;2.83;;
59468;SDS011;45277;52.768;18.262;2024-01-15T05:59:30;7.70;;;4.72;;
59468;SDS011;45277;52.768;18.262;2024-01-15T06:01:04;8.02;;;5.60;;
59468;SDS011;45277;52.768;18.262;2024-01-15T06:02:37;6.70;;;4.07;;
59468;SDS011;45277;52.768;18.262;2024-01-15T06:04:09;10.40;;;4.22;;
59468;SDS011;45277;52.768;18.262;2024-01-15T06:05:41;5.78;;;3.95;;
59468;SDS011;45277;52.768;18.262;2024-01-15T06:07:12;13.38;;;6.63;;
59468;SDS011;45277;52.768;18.262;2024-01-15T06:08:43;6.90;;;5.15;;
59468;SDS011;45277;52.768;18.262;2024-01-15T06:10:15;5.85;;;5.00;;
59468;SDS011;45277;52.768;18.262;2024-01-15T06:11:46;6.60;;;4.88;;
59468;SDS011;45277;52.768;18.262;2024-01-15T06:13:17;6.07;;;4.80;;
59468;SDS011;45277;52.768;18.262;2024-01-15T06:14:49;5.18;;;4.00;;
59468;SDS011;45277;52.768;18.262;2024-01-15T06:16:20;7.88;;;5.05;;
59468;SDS011;45277;52.768;18.262;2024-01-15T06:17:52;7.47;;;5.13;;
59468;SDS011;45277;52.768;18.262;2024-01-15T06:19:24;9.73;;;4.53;;
59468;SDS011;45277;52.768;18.262;2024-01-15T06:20:55;6.93;;;5.00;;
59468;SDS011;45277;52.768;18.262;2024-01-15T06:22:27;6.55;;;5.18;;
59468;SDS011;45277;52.768;18.262;2024-01-15T06:23:58;6.95;;;4.25;;
59468;SDS011;45277;52.768;18.262;2024-01-15T06:25:29;7.63;;;4.22;;
59468;SDS011;45277;52.768;18.262;2024-01-15T06:27:01;8.20;;;5.50;;
59468;SDS011;45277;52.768;18.262;2024-01-15T06:28:32;10.25;;;6.85;;
59468;SDS011;45277;52.768;18.262;2024-01-15T06:30:04;9.50;;;4.10;;
59468;SDS011;45277;52.768;18.262;2024-01-15T06:31:36;3.55;;;3.20;;
59468;SDS011;45277;52.768;18.262;2024-01-15T06:33:07;11.63;;;6.72;;
59468;SDS011;45277;52.768;18.262;2024-01-15T06:34:39;7.20;;;4.30;;
59468;SDS011;45277;52.768;18.262;2024-01-15T06:36:10;8.55;;;4.30;;
59468;SDS011;45277;52.768;18.262;2024-01-15T06:37:42;3.08;;;2.65;;
59468;SDS011;45277;52.768;18.262;2024-01-15T06:39:13;11.35;;;3.53;;
59468;SDS011;45277;52.768;18.262;2024-01-15T06:40:45;4.95;;;3.72;;
59468;SDS011;45277;52.768;18.262;2024-01-15T06:42:19;10.73;;;5.00;;
59468;SDS011;45277;52.768;18.262;2024-01-15T06:43:52;5.32;;;3.22;;
59468;SDS011;45277;52.768;18.262;2024-01-15T06:45:23;6.60;;;2.88;;
59468;SDS011;45277;52.768;18.262;2024-01-15T06:46:55;3.45;;;2.50;;
59468;SDS011;45277;52.768;18.262;2024-01-15T06:48:27;8.50;;;3.95;;
59468;SDS011;45277;52.768;18.262;2024-01-15T06:49:59;11.55;;;4.40;;
59468;SDS011;45277;52.768;18.262;2024-01-15T06:51:31;3.85;;;2.95;;
59468;SDS011;45277;52.768;18.262;2024-01-15T06:53:03;7.72;;;3.83;;
59468;SDS011;45277;52.768;18.262;2024-01-15T06:54:34;3.83;;;3.28;;
59468;SDS011;45277;52.768;18.262;2024-01-15T06:56:06;4.63;;;3.20;;
59468;SDS011;45277;52.768;18.262;2024-01-15T06:57:37;4.53;;;3.17;;
59468;SDS011;45277;52.768;18.262;2024-01-15T06:59:09;3.97;;;3.08;;
59468;SDS011;45277;52.768;18.262;2024-01-15T07:00:40;6.43;;;4.07;;
59468;SDS011;45277;52.768;18.262;2024-01-15T07:02:12;2.42;;;2.22;;
59468;SDS011;45277;52.768;18.262;2024-01-15T07:03:43;4.95;;;3.95;;
59468;SDS011;45277;52.768;18.262;2024-01-15T07:05:15;3.13;;;2.78;;
59468;SDS011;45277;52.768;18.262;2024-01-15T07:06:46;4.90;;;3.53;;
59468;SDS011;45277;52.768;18.262;2024-01-15T07:08:18;4.45;;;2.85;;
59468;SDS011;45277;52.768;18.262;2024-01-15T07:09:50;6.65;;;3.97;;
59468;SDS011;45277;52.768;18.262;2024-01-15T07:11:22;4.10;;;2.65;;
59468;SDS011;45277;52.768;18.262;2024-01-15T07:12:54;5.00;;;4.20;;
59468;SDS011;45277;52.768;18.262;2024-01-15T07:14:25;7.13;;;4.65;;
59468;SDS011;45277;52.768;18.262;2024-01-15T07:15:57;4.35;;;3.72;;
59468;SDS011;45277;52.768;18.262;2024-01-15T07:17:28;5.00;;;2.80;;
59468;SDS011;45277;52.768;18.262;2024-01-15T07:19:00;3.70;;;3.03;;
59468;SDS011;45277;52.768;18.262;2024-01-15T07:20:31;5.72;;;4.07;;
59468;SDS011;45277;52.768;18.262;2024-01-15T07:22:03;3.60;;;2.75;;
59468;SDS011;45277;52.768;18.262;2024-01-15T07:23:35;8.02;;;4.47;;
59468;SDS011;45277;52.768;18.262;2024-01-15T07:25:06;2.97;;;2.75;;
59468;SDS011;45277;52.768;18.262;2024-01-15T07:26:37;5.55;;;3.25;;
59468;SDS011;45277;52.768;18.262;2024-01-15T07:28:09;8.60;;;3.75;;
59468;SDS011;45277;52.768;18.262;2024-01-15T07:29:40;10.38;;;4.38;;
59468;SDS011;45277;52.768;18.262;2024-01-15T07:33:41;4.28;;;3.55;;
59468;SDS011;45277;52.768;18.262;2024-01-15T07:35:12;11.00;;;4.13;;
59468;SDS011;45277;52.768;18.262;2024-01-15T07:36:44;5.07;;;3.88;;
59468;SDS011;45277;52.768;18.262;2024-01-15T07:38:16;6.18;;;4.18;;
59468;SDS011;45277;52.768;18.262;2024-01-15T07:39:47;5.10;;;3.47;;
59468;SDS011;45277;52.768;18.262;2024-01-15T07:41:18;6.88;;;4.63;;
59468;SDS011;45277;52.768;18.262;2024-01-15T07:42:50;6.28;;;4.38;;
59468;SDS011;45277;52.768;18.262;2024-01-15T07:44:22;13.40;;;6.65;;
59468;SDS011;45277;52.768;18.262;2024-01-15T07:45:53;8.38;;;4.65;;
59468;SDS011;45277;52.768;18.262;2024-01-15T07:47:26;8.48;;;4.60;;
59468;SDS011;45277;52.768;18.262;2024-01-15T07:48:58;9.15;;;5.03;;
59468;SDS011;45277;52.768;18.262;2024-01-15T07:50:29;9.82;;;5.50;;
59468;SDS011;45277;52.768;18.262;2024-01-15T07:52:01;6.03;;;4.20;;
59468;SDS011;45277;52.768;18.262;2024-01-15T07:53:33;10.10;;;6.13;;
59468;SDS011;45277;52.768;18.262;2024-01-15T07:55:04;11.18;;;5.65;;
59468;SDS011;45277;52.768;18.262;2024-01-15T07:56:55;5.70;;;4.30;;
59468;SDS011;45277;52.768;18.262;2024-01-15T07:58:30;8.45;;;6.00;;
59468;SDS011;45277;52.768;18.262;2024-01-15T08:00:02;6.53;;;4.85;;
59468;SDS011;45277;52.768;18.262;2024-01-15T08:01:37;13.23;;;6.10;;
59468;SDS011;45277;52.768;18.262;2024-01-15T08:03:08;11.40;;;5.43;;
59468;SDS011;45277;52.768;18.262;2024-01-15T08:04:40;11.00;;;6.40;;
59468;SDS011;45277;52.768;18.262;2024-01-15T08:06:11;11.27;;;5.20;;
59468;SDS011;45277;52.768;18.262;2024-01-15T08:07:42;11.25;;;6.15;;
59468;SDS011;45277;52.768;18.262;2024-01-15T08:09:16;9.10;;;5.00;;
59468;SDS011;45277;52.768;18.262;2024-01-15T08:10:47;7.30;;;4.88;;
59468;SDS011;45277;52.768;18.262;2024-01-15T08:12:18;9.18;;;6.07;;
59468;SDS011;45277;52.768;18.262;2024-01-15T08:13:50;13.20;;;7.43;;
59468;SDS011;45277;52.768;18.262;2024-01-15T08:15:22;14.60;;;8.60;;
59468;SDS011;45277;52.768;18.262;2024-01-15T08:16:53;20.67;;;9.75;;
59468;SDS011;45277;52.768;18.262;2024-01-15T08:18:25;19.77;;;8.38;;
59468;SDS011;45277;52.768;18.262;2024-01-15T08:19:56;16.00;;;9.00;;
59468;SDS011;45277;52.768;18.262;2024-01-15T08:21:27;19.75;;;10.52;;
59468;SDS011;45277;52.768;18.262;2024-01-15T08:23:03;18.73;;;11.73;;
59468;SDS011;45277;52.768;18.262;2024-01-15T08:24:34;15.30;;;8.50;;
59468;SDS011;45277;52.768;18.262;2024-01-15T08:26:05;16.23;;;8.68;;
59468;SDS011;45277;52.768;18.262;2024-01-15T08:27:37;12.43;;;6.65;;
59468;SDS011;45277;52.768;18.262;2024-01-15T08:29:08;20.88;;;9.15;;
59468;SDS011;45277;52.768;18.262;2024-01-15T08:30:39;13.50;;;8.80;;
59468;SDS011;45277;52.768;18.262;2024-01-15T08:32:11;16.33;;;9.55;;
59468;SDS011;45277;52.768;18.262;2024-01-15T08:33:45;6.18;;;4.60;;
59468;SDS011;45277;52.768;18.262;2024-01-15T08:35:17;4.10;;;3.40;;
59468;SDS011;45277;52.768;18.262;2024-01-15T08:36:53;11.23;;;4.50;;
59468;SDS011;45277;52.768;18.262;2024-01-15T08:38:25;6.85;;;4.88;;
59468;SDS011;45277;52.768;18.262;2024-01-15T08:39:56;7.95;;;5.30;;
59468;SDS011;45277;52.768;18.262;2024-01-15T08:41:28;18.38;;;8.45;;
59468;SDS011;45277;52.768;18.262;2024-01-15T08:42:59;42.42;;;19.27;;
59468;SDS011;45277;52.768;18.262;2024-01-15T08:44:30;54.25;;;20.83;;
59468;SDS011;45277;52.768;18.262;2024-01-15T08:46:02;79.22;;;22.38;;
59468;SDS011;45277;52.768;18.262;2024-01-15T08:47:34;34.92;;;12.38;;
59468;SDS011;45277;52.768;18.262;2024-01-15T08:49:06;21.35;;;9.18;;
59468;SDS011;45277;52.768;18.262;2024-01-15T08:50:38;24.83;;;8.95;;
59468;SDS011;45277;52.768;18.262;2024-01-15T08:52:09;35.60;;;14.25;;
59468;SDS011;45277;52.768;18.262;2024-01-15T08:53:40;35.33;;;8.75;;
59468;SDS011;45277;52.768;18.262;2024-01-15T08:55:13;14.50;;;6.93;;
59468;SDS011;45277;52.768;18.262;2024-01-15T08:56:45;27.45;;;9.80;;
59468;SDS011;45277;52.768;18.262;2024-01-15T08:58:16;33.00;;;9.73;;
59468;SDS011;45277;52.768;18.262;2024-01-15T08:59:48;8.80;;;4.18;;
59468;SDS011;45277;52.768;18.262;2024-01-15T09:01:19;16.73;;;6.57;;